Time;durP1;ratioP1;P1;durP2;ratioP2;P2;SDS_P1;SDS_P2;PMS_P1;PMS_P2;Temp;Humidity;BMP_temperature;BMP_pressure;BME280_temperature;BME280_humidity;BME280_pressure;Samples;Min_cycle;Max_cycle;Signal;HPM_P1;HPM_P2
2021/08/01 00:01:24;;;;;;;6.88;5.38;;;;;;;;;;5134256;28;20079;-76
2021/08/01 00:03:51;;;;;;;8.10;6.35;;;;;;;;;;5133941;28;20084;-76
2021/08/01 00:06:18;;;;;;;10.38;5.78;;;;;;;;;;5134119;28;20107;-76
2021/08/01 00:08:44;;;;;;;9.20;5.60;;;;;;;;;;5134122;28;20030;-75
2021/08/01 00:11:10;;;;;;;5.80;5.10;;;;;;;;;;5134200;28;20069;-76
2021/08/01 00:13:37;;;;;;;5.80;4.22;;;;;;;;;;5134077;28;20050;-75
2021/08/01 00:16:03;;;;;;;6.45;5.10;;;;;;;;;;5134005;28;20034;-76
2021/08/01 00:18:29;;;;;;;10.55;6.68;;;;;;;;;;5134982;27;20531;-76
2021/08/01 00:20:55;;;;;;;6.85;4.65;;;;;;;;;;5138296;27;20034;-77
2021/08/01 00:23:22;;;;;;;5.47;4.45;;;;;;;;;;5137791;27;20061;-77
2021/08/01 00:25:48;;;;;;;6.88;5.00;;;;;;;;;;5137969;27;20109;-77
2021/08/01 00:28:14;;;;;;;5.60;4.53;;;;;;;;;;5137976;27;20053;-77
2021/08/01 00:30:40;;;;;;;6.05;4.68;;;;;;;;;;5137858;27;20031;-76
2021/08/01 00:33:06;;;;;;;9.38;6.38;;;;;;;;;;5137898;27;20031;-76
2021/08/01 00:35:32;;;;;;;6.53;5.40;;;;;;;;;;5137931;27;20030;-77
2021/08/01 00:37:58;;;;;;;5.40;4.90;;;;;;;;;;5137733;27;20049;-76
2021/08/01 00:40:25;;;;;;;7.20;5.07;;;;;;;;;;5137663;27;20035;-77
2021/08/01 00:42:51;;;;;;;5.75;4.50;;;;;;;;;;5137819;27;20461;-77
2021/08/01 00:45:17;;;;;;;7.30;5.18;;;;;;;;;;5137580;27;20084;-77
2021/08/01 00:47:44;;;;;;;6.53;5.82;;;;;;;;;;5137549;27;20023;-79
2021/08/01 00:50:10;;;;;;;6.80;5.15;;;;;;;;;;5137837;27;20035;-77
2021/08/01 00:52:37;;;;;;;7.35;4.75;;;;;;;;;;5137449;27;20379;-76
2021/08/01 00:55:04;;;;;;;7.53;5.13;;;;;;;;;;5137399;27;20018;-76
2021/08/01 00:57:30;;;;;;;6.47;5.20;;;;;;;;;;5137453;27;20098;-78
2021/08/01 00:59:56;;;;;;;6.85;5.25;;;;;;;;;;5137334;27;20027;-77
2021/08/01 01:02:25;;;;;;;7.53;5.18;;;;;;;;;;5137448;27;20067;-76
2021/08/01 01:05:10;;;;;;;5.03;4.53;;;;;;;;;;5137233;27;20031;-77
2021/08/01 01:07:59;;;;;;;5.22;4.35;;;;;;;;;;5137245;27;20434;-77
2021/08/01 01:10:25;;;;;;;5.55;4.93;;;;;;;;;;5137106;27;20035;-76
2021/08/01 01:12:53;;;;;;;8.63;5.28;;;;;;;;;;5137309;27;20106;-76
2021/08/01 01:15:21;;;;;;;7.03;5.75;;;;;;;;;;5137000;27;20019;-76
2021/08/01 01:17:48;;;;;;;12.63;11.43;;;;;;;;;;5137031;27;20470;-76
2021/08/01 01:20:25;;;;;;;8.35;7.55;;;;;;;;;;5136656;27;20034;-77
2021/08/01 01:23:09;;;;;;;6.43;4.88;;;;;;;;;;5136670;27;20043;-76
2021/08/01 01:25:35;;;;;;;8.77;5.82;;;;;;;;;;5136914;27;20031;-77
2021/08/01 01:28:20;;;;;;;8.00;5.43;;;;;;;;;;5136895;27;20028;-77
2021/08/01 01:31:06;;;;;;;5.53;5.03;;;;;;;;;;5135794;27;20110;-77
2021/08/01 01:33:34;;;;;;;6.35;4.97;;;;;;;;;;5136237;27;20029;-76
2021/08/01 01:36:02;;;;;;;7.53;5.18;;;;;;;;;;5136416;27;20045;-79
2021/08/01 01:38:28;;;;;;;6.82;5.35;;;;;;;;;;5136502;27;20028;-80
2021/08/01 01:40:55;;;;;;;6.97;5.10;;;;;;;;;;5136517;27;20413;-78
2021/08/01 01:43:23;;;;;;;6.03;5.30;;;;;;;;;;5136475;27;20067;-81
2021/08/01 01:45:50;;;;;;;5.50;4.93;;;;;;;;;;5136309;27;20027;-79
2021/08/01 01:48:16;;;;;;;6.13;5.25;;;;;;;;;;5136516;27;20359;-77
2021/08/01 01:50:42;;;;;;;7.68;4.97;;;;;;;;;;5136665;27;20019;-78
2021/08/01 01:53:09;;;;;;;6.53;5.93;;;;;;;;;;5136415;27;20034;-77
2021/08/01 01:55:35;;;;;;;8.13;5.85;;;;;;;;;;5136446;27;20027;-78
2021/08/01 01:58:02;;;;;;;6.47;4.82;;;;;;;;;;5136266;27;20432;-78
2021/08/01 02:00:28;;;;;;;7.40;5.25;;;;;;;;;;5136030;27;20474;-80
2021/08/01 02:02:54;;;;;;;6.03;5.30;;;;;;;;;;5136190;27;20050;-79
2021/08/01 02:05:20;;;;;;;8.30;5.20;;;;;;;;;;5136072;27;20063;-79
2021/08/01 02:07:46;;;;;;;6.82;5.30;;;;;;;;;;5136180;27;20026;-79
2021/08/01 02:10:17;;;;;;;7.07;6.35;;;;;;;;;;5136054;27;20027;-79
2021/08/01 02:12:48;;;;;;;6.70;5.82;;;;;;;;;;5135869;27;20027;-79
2021/08/01 02:15:15;;;;;;;9.73;5.95;;;;;;;;;;5135765;27;20102;-80
2021/08/01 02:17:55;;;;;;;7.53;4.97;;;;;;;;;;5135877;27;20399;-80
2021/08/01 02:20:26;;;;;;;7.53;4.88;;;;;;;;;;5135732;27;20095;-79
2021/08/01 02:22:52;;;;;;;7.95;5.15;;;;;;;;;;5135305;27;20047;-80
2021/08/01 02:25:20;;;;;;;7.38;6.15;;;;;;;;;;5135540;27;20088;-80
2021/08/01 02:27:47;;;;;;;7.00;5.78;;;;;;;;;;5135631;27;20424;-78
2021/08/01 02:30:13;;;;;;;6.45;5.45;;;;;;;;;;5135424;27;20030;-78
2021/08/01 02:32:40;;;;;;;5.90;5.30;;;;;;;;;;5135622;27;20031;-79
2021/08/01 02:35:07;;;;;;;8.13;5.85;;;;;;;;;;5135499;27;20097;-78
2021/08/01 02:37:34;;;;;;;7.60;5.10;;;;;;;;;;5135470;27;20052;-78
2021/08/01 02:40:01;;;;;;;8.13;6.03;;;;;;;;;;5135581;27;20055;-78
2021/08/01 02:42:27;;;;;;;9.13;5.05;;;;;;;;;;5135085;27;20027;-80
2021/08/01 02:44:56;;;;;;;6.78;5.57;;;;;;;;;;5135388;27;20031;-80
2021/08/01 02:47:23;;;;;;;6.80;5.93;;;;;;;;;;5135298;27;20027;-79
2021/08/01 02:49:50;;;;;;;9.23;6.28;;;;;;;;;;5135220;27;20023;-79
2021/08/01 02:52:20;;;;;;;6.07;5.47;;;;;;;;;;5134845;27;20065;-78
2021/08/01 02:54:48;;;;;;;8.70;5.95;;;;;;;;;;5135061;27;20031;-81
2021/08/01 02:57:15;;;;;;;9.30;5.57;;;;;;;;;;5135065;27;20094;-79
2021/08/01 02:59:42;;;;;;;7.20;5.60;;;;;;;;;;5135105;27;20023;-77
2021/08/01 03:02:11;;;;;;;8.30;5.50;;;;;;;;;;5135109;27;20067;-78
2021/08/01 03:04:39;;;;;;;6.85;5.57;;;;;;;;;;5134971;27;20034;-79
2021/08/01 03:07:09;;;;;;;8.55;5.40;;;;;;;;;;5134817;27;20023;-79
2021/08/01 03:09:35;;;;;;;8.10;5.88;;;;;;;;;;5135112;27;20026;-79
2021/08/01 03:12:11;;;;;;;6.78;5.78;;;;;;;;;;5134826;27;20060;-78
2021/08/01 03:14:37;;;;;;;6.43;5.35;;;;;;;;;;5134622;27;20031;-79
2021/08/01 03:17:04;;;;;;;8.48;5.88;;;;;;;;;;5134787;27;20098;-78
2021/08/01 03:19:30;;;;;;;7.35;5.90;;;;;;;;;;5134760;27;20111;-81
2021/08/01 03:21:56;;;;;;;7.93;5.53;;;;;;;;;;5134549;27;20059;-79
2021/08/01 03:24:22;;;;;;;7.05;5.72;;;;;;;;;;5134607;27;20084;-77
2021/08/01 03:26:48;;;;;;;9.18;6.22;;;;;;;;;;5134768;27;20062;-78
2021/08/01 03:29:14;;;;;;;10.75;6.68;;;;;;;;;;5134543;27;20027;-78
2021/08/01 03:31:41;;;;;;;8.60;6.30;;;;;;;;;;5134455;27;20411;-79
2021/08/01 03:34:07;;;;;;;8.40;6.18;;;;;;;;;;5134513;27;20497;-81
2021/08/01 03:36:33;;;;;;;7.18;5.95;;;;;;;;;;5134589;27;20023;-81
2021/08/01 03:38:59;;;;;;;12.77;6.63;;;;;;;;;;5134613;27;20080;-81
2021/08/01 03:41:25;;;;;;;6.78;6.07;;;;;;;;;;5134464;27;20027;-79
2021/08/01 03:43:51;;;;;;;9.57;5.97;;;;;;;;;;5134409;27;20058;-80
2021/08/01 03:46:17;;;;;;;7.13;5.63;;;;;;;;;;5134306;28;20423;-81
2021/08/01 03:48:43;;;;;;;9.77;6.10;;;;;;;;;;5134309;28;20558;-80
2021/08/01 03:51:09;;;;;;;8.85;5.75;;;;;;;;;;5134448;28;20382;-80
2021/08/01 03:53:35;;;;;;;7.80;7.00;;;;;;;;;;5135602;27;20027;-80
2021/08/01 03:56:03;;;;;;;12.35;6.80;;;;;;;;;;5138300;27;20023;-79
2021/08/01 03:58:29;;;;;;;11.70;6.70;;;;;;;;;;5138798;27;20052;-81
2021/08/01 04:00:55;;;;;;;11.48;6.80;;;;;;;;;;5138542;27;20038;-81
2021/08/01 04:03:21;;;;;;;16.92;8.43;;;;;;;;;;5138234;27;20080;-80
2021/08/01 04:05:47;;;;;;;12.80;7.70;;;;;;;;;;5138344;27;20110;-80
2021/08/01 04:08:14;;;;;;;9.57;7.60;;;;;;;;;;5138364;27;20065;-78
2021/08/01 04:10:40;;;;;;;9.73;7.40;;;;;;;;;;5138354;27;20034;-81
2021/08/01 04:13:06;;;;;;;9.65;7.10;;;;;;;;;;5138233;27;20058;-80
2021/08/01 04:15:33;;;;;;;11.23;7.63;;;;;;;;;;5138267;27;20027;-80
2021/08/01 04:18:02;;;;;;;10.02;7.10;;;;;;;;;;5138105;27;20023;-80
2021/08/01 04:20:28;;;;;;;8.15;7.00;;;;;;;;;;5138132;27;20019;-80
2021/08/01 04:22:54;;;;;;;13.88;7.40;;;;;;;;;;5137948;27;20130;-80
2021/08/01 04:25:21;;;;;;;9.52;8.05;;;;;;;;;;5138050;27;20031;-80
2021/08/01 04:27:47;;;;;;;10.32;6.90;;;;;;;;;;5138033;27;20067;-79
2021/08/01 04:30:13;;;;;;;9.35;7.32;;;;;;;;;;5137935;27;20107;-80
2021/08/01 04:32:39;;;;;;;7.80;7.03;;;;;;;;;;5137842;27;20047;-80
2021/08/01 04:35:06;;;;;;;9.25;7.63;;;;;;;;;;5137776;27;20049;-80
2021/08/01 04:37:32;;;;;;;8.10;6.97;;;;;;;;;;5137774;27;20382;-78
2021/08/01 04:39:58;;;;;;;8.18;6.78;;;;;;;;;;5137808;27;20035;-81
2021/08/01 04:42:24;;;;;;;9.65;6.88;;;;;;;;;;5137883;27;20100;-78
2021/08/01 04:44:50;;;;;;;10.88;7.10;;;;;;;;;;5137701;27;20031;-78
2021/08/01 04:47:16;;;;;;;8.63;6.70;;;;;;;;;;5137376;27;20031;-80
2021/08/01 04:49:42;;;;;;;9.50;7.40;;;;;;;;;;5137543;27;20019;-79
2021/08/01 04:52:15;;;;;;;13.80;7.55;;;;;;;;;;5137630;27;20397;-79
2021/08/01 04:54:41;;;;;;;7.57;6.75;;;;;;;;;;5137270;27;20106;-81
2021/08/01 04:57:07;;;;;;;11.98;7.72;;;;;;;;;;5137719;27;20414;-81
2021/08/01 04:59:36;;;;;;;12.85;8.73;;;;;;;;;;5137236;27;20019;-81
2021/08/01 05:02:03;;;;;;;7.88;7.05;;;;;;;;;;5137328;27;20023;-80
2021/08/01 05:04:29;;;;;;;8.90;7.20;;;;;;;;;;5137169;27;20027;-78
2021/08/01 05:06:56;;;;;;;10.30;7.45;;;;;;;;;;5137273;27;20027;-77
2021/08/01 05:09:22;;;;;;;11.23;7.47;;;;;;;;;;5137301;27;20034;-78
2021/08/01 05:11:48;;;;;;;9.85;7.25;;;;;;;;;;5137406;27;20531;-78
2021/08/01 05:14:14;;;;;;;10.60;7.45;;;;;;;;;;5136738;27;20026;-79
2021/08/01 05:16:41;;;;;;;9.90;7.38;;;;;;;;;;5137078;27;20052;-79
2021/08/01 05:19:07;;;;;;;12.02;7.80;;;;;;;;;;5137001;27;20019;-80
2021/08/01 05:21:33;;;;;;;9.75;7.20;;;;;;;;;;5136843;27;20110;-79
2021/08/01 05:23:59;;;;;;;10.63;6.78;;;;;;;;;;5136742;27;20106;-81
2021/08/01 05:26:25;;;;;;;10.13;7.70;;;;;;;;;;5136877;27;20153;-80
2021/08/01 05:28:51;;;;;;;8.38;7.45;;;;;;;;;;5136822;27;20023;-79
2021/08/01 05:31:17;;;;;;;6.88;6.18;;;;;;;;;;5136453;27;20034;-81
2021/08/01 05:33:44;;;;;;;12.20;7.40;;;;;;;;;;5136643;27;20055;-78
2021/08/01 05:36:10;;;;;;;8.32;7.22;;;;;;;;;;5136704;27;20019;-78
2021/08/01 05:38:37;;;;;;;8.20;7.20;;;;;;;;;;5118154;27;20027;-81
2021/08/01 05:41:03;;;;;;;11.98;7.80;;;;;;;;;;5136667;27;20092;-80
2021/08/01 05:43:30;;;;;;;13.75;8.85;;;;;;;;;;5136512;27;20019;-81
2021/08/01 05:45:56;;;;;;;12.77;9.73;;;;;;;;;;5136547;27;20031;-80
2021/08/01 05:48:23;;;;;;;19.08;10.65;;;;;;;;;;5136420;27;20059;-81
2021/08/01 05:50:49;;;;;;;14.50;9.27;;;;;;;;;;5136484;27;20023;-78
2021/08/01 05:53:20;;;;;;;12.40;9.40;;;;;;;;;;5136411;27;20023;-80
2021/08/01 05:55:47;;;;;;;13.95;9.57;;;;;;;;;;5136301;27;20027;-77
2021/08/01 05:58:13;;;;;;;15.48;9.80;;;;;;;;;;5136427;27;20019;-80
2021/08/01 06:00:39;;;;;;;15.35;10.23;;;;;;;;;;5136227;27;20099;-81
2021/08/01 06:03:05;;;;;;;11.63;9.25;;;;;;;;;;5136026;27;20031;-79
2021/08/01 06:05:31;;;;;;;13.48;8.45;;;;;;;;;;5136204;27;20043;-80
2021/08/01 06:07:57;;;;;;;11.70;8.40;;;;;;;;;;5136078;27;20071;-78
2021/08/01 06:10:23;;;;;;;12.93;8.93;;;;;;;;;;5135955;27;20418;-81
2021/08/01 06:12:49;;;;;;;13.45;8.90;;;;;;;;;;5135914;27;20023;-78
2021/08/01 06:15:15;;;;;;;14.10;8.88;;;;;;;;;;5135989;27;20051;-78
2021/08/01 06:17:41;;;;;;;11.88;8.25;;;;;;;;;;5135465;27;20028;-78
2021/08/01 06:20:08;;;;;;;11.07;7.53;;;;;;;;;;5135674;27;20059;-79
2021/08/01 06:22:34;;;;;;;12.75;8.45;;;;;;;;;;5135571;27;20055;-79
2021/08/01 06:25:00;;;;;;;12.48;8.30;;;;;;;;;;5135552;27;20035;-79
2021/08/01 06:27:26;;;;;;;15.80;8.95;;;;;;;;;;5135629;27;20381;-78
2021/08/01 06:29:52;;;;;;;13.55;8.02;;;;;;;;;;5135646;27;20027;-77
2021/08/01 06:32:18;;;;;;;11.90;8.52;;;;;;;;;;5135692;27;20095;-80
2021/08/01 06:34:44;;;;;;;10.73;8.05;;;;;;;;;;5135547;27;20505;-79
2021/08/01 06:37:10;;;;;;;13.85;8.52;;;;;;;;;;5135554;27;20051;-81
2021/08/01 06:39:36;;;;;;;11.73;8.00;;;;;;;;;;5135553;27;20020;-79
2021/08/01 06:42:03;;;;;;;13.13;8.57;;;;;;;;;;5135416;27;20080;-78
2021/08/01 06:44:29;;;;;;;11.77;7.93;;;;;;;;;;5135292;27;20035;-77
2021/08/01 06:46:55;;;;;;;13.95;7.68;;;;;;;;;;5135125;27;20034;-81
2021/08/01 06:49:21;;;;;;;9.73;7.35;;;;;;;;;;5135228;27;20027;-76
2021/08/01 06:51:47;;;;;;;9.38;7.57;;;;;;;;;;5135294;27;20477;-76
2021/08/01 06:54:13;;;;;;;17.30;8.23;;;;;;;;;;5135183;27;20094;-75
2021/08/01 06:56:39;;;;;;;13.30;7.32;;;;;;;;;;5135052;27;20470;-75
2021/08/01 06:59:05;;;;;;;9.00;6.47;;;;;;;;;;5135181;27;20533;-76
2021/08/01 07:01:31;;;;;;;9.93;7.53;;;;;;;;;;5135120;27;20571;-76
2021/08/01 07:03:58;;;;;;;14.88;8.32;;;;;;;;;;5126865;27;20114;-76
2021/08/01 07:06:24;;;;;;;17.52;8.50;;;;;;;;;;5123916;27;20065;-76
2021/08/01 07:08:50;;;;;;;10.43;7.43;;;;;;;;;;5122416;27;20047;-76
2021/08/01 07:11:16;;;;;;;10.70;8.55;;;;;;;;;;5124581;27;20024;-76
2021/08/01 07:13:42;;;;;;;10.27;7.15;;;;;;;;;;5123536;27;20489;-76
2021/08/01 07:16:08;;;;;;;7.72;7.03;;;;;;;;;;5124803;27;20411;-76
2021/08/01 07:18:34;;;;;;;11.85;7.78;;;;;;;;;;5122730;27;20019;-76
2021/08/01 07:21:01;;;;;;;12.90;8.43;;;;;;;;;;5124275;27;20023;-76
2021/08/01 07:23:27;;;;;;;12.88;8.23;;;;;;;;;;5131519;27;20039;-76
2021/08/01 07:25:53;;;;;;;10.15;7.70;;;;;;;;;;5133409;27;20115;-76
2021/08/01 07:28:19;;;;;;;12.20;7.18;;;;;;;;;;5132618;27;20031;-76
2021/08/01 07:30:45;;;;;;;12.55;7.90;;;;;;;;;;5133367;27;20027;-75
2021/08/01 07:33:11;;;;;;;10.93;8.43;;;;;;;;;;5134172;27;20050;-75
2021/08/01 07:35:38;;;;;;;15.75;8.07;;;;;;;;;;5134573;27;20027;-76
2021/08/01 07:38:04;;;;;;;14.40;8.50;;;;;;;;;;5134128;27;20073;-76
2021/08/01 07:40:30;;;;;;;11.52;9.10;;;;;;;;;;5134387;27;20019;-76
2021/08/01 07:42:56;;;;;;;9.10;8.20;;;;;;;;;;5133976;27;20084;-76
2021/08/01 07:45:30;;;;;;;8.05;7.10;;;;;;;;;;5134220;27;20038;-75
2021/08/01 07:47:56;;;;;;;9.98;7.63;;;;;;;;;;5134322;27;20110;-76
2021/08/01 07:50:23;;;;;;;9.45;6.95;;;;;;;;;;5134429;28;20094;-76
2021/08/01 07:52:49;;;;;;;11.77;7.88;;;;;;;;;;5134183;28;20051;-76
2021/08/01 07:55:15;;;;;;;13.07;7.50;;;;;;;;;;5134397;28;20035;-76
2021/08/01 07:57:42;;;;;;;13.68;7.80;;;;;;;;;;5134197;28;20019;-76
2021/08/01 08:00:09;;;;;;;10.80;7.78;;;;;;;;;;5134009;28;20479;-78
2021/08/01 08:02:35;;;;;;;13.20;8.70;;;;;;;;;;5134329;28;20042;-76
2021/08/01 08:05:02;;;;;;;9.52;7.50;;;;;;;;;;5134016;28;20035;-76
2021/08/01 08:07:28;;;;;;;9.98;6.85;;;;;;;;;;5134163;28;20102;-76
2021/08/01 08:09:54;;;;;;;9.18;6.90;;;;;;;;;;5134174;28;20032;-76
2021/08/01 08:12:20;;;;;;;12.13;8.60;;;;;;;;;;5134308;28;20028;-76
2021/08/01 08:14:47;;;;;;;10.18;7.45;;;;;;;;;;5134118;28;20023;-75
2021/08/01 08:17:13;;;;;;;13.77;7.80;;;;;;;;;;5134323;28;20048;-77
2021/08/01 08:19:39;;;;;;;11.38;7.22;;;;;;;;;;5133994;28;20110;-76
2021/08/01 08:22:05;;;;;;;15.90;7.88;;;;;;;;;;5134151;28;20089;-75
2021/08/01 08:24:31;;;;;;;11.57;8.15;;;;;;;;;;5134152;28;20486;-75
2021/08/01 08:26:58;;;;;;;13.10;11.30;;;;;;;;;;5134175;28;20016;-75
2021/08/01 08:29:24;;;;;;;10.75;7.63;;;;;;;;;;5115819;28;20027;-76
2021/08/01 08:32:09;;;;;;;11.38;7.10;;;;;;;;;;5133877;28;20023;-75
2021/08/01 08:34:35;;;;;;;25.50;9.65;;;;;;;;;;5133947;28;20110;-76
2021/08/01 08:37:01;;;;;;;13.77;8.18;;;;;;;;;;5133912;28;20034;-76
2021/08/01 08:39:28;;;;;;;13.27;8.38;;;;;;;;;;5134770;27;20023;-76
2021/08/01 08:41:56;;;;;;;9.77;8.00;;;;;;;;;;5137827;27;20031;-76
2021/08/01 08:44:22;;;;;;;14.27;7.97;;;;;;;;;;5137559;27;20476;-76
2021/08/01 08:46:48;;;;;;;10.15;8.07;;;;;;;;;;5137644;27;20151;-76
2021/08/01 08:49:15;;;;;;;10.57;7.72;;;;;;;;;;5137576;27;20019;-76
2021/08/01 08:51:44;;;;;;;13.57;8.77;;;;;;;;;;5137573;27;20037;-76
2021/08/01 08:54:13;;;;;;;11.65;7.63;;;;;;;;;;5137510;27;20027;-77
2021/08/01 08:56:40;;;;;;;9.00;7.65;;;;;;;;;;5137452;27;20023;-76
2021/08/01 08:59:06;;;;;;;14.77;8.38;;;;;;;;;;5137437;27;20378;-76
2021/08/01 09:01:33;;;;;;;10.25;7.55;;;;;;;;;;5137491;27;20455;-76
2021/08/01 09:03:59;;;;;;;9.18;7.53;;;;;;;;;;5137257;27;20038;-76
2021/08/01 09:06:25;;;;;;;11.82;8.02;;;;;;;;;;5137336;27;20474;-77
2021/08/01 09:08:51;;;;;;;11.65;8.00;;;;;;;;;;5137211;27;20027;-76
2021/08/01 09:11:17;;;;;;;10.63;7.35;;;;;;;;;;5137295;27;20068;-76
2021/08/01 09:14:02;;;;;;;13.32;7.88;;;;;;;;;;5137106;27;20027;-76
2021/08/01 09:16:41;;;;;;;12.73;7.90;;;;;;;;;;5137317;27;20504;-77
2021/08/01 09:19:23;;;;;;;9.38;7.55;;;;;;;;;;5137196;27;20055;-76
2021/08/01 09:21:49;;;;;;;12.32;8.23;;;;;;;;;;5136531;27;20043;-75
2021/08/01 09:24:15;;;;;;;15.50;7.65;;;;;;;;;;5137010;27;20122;-76
2021/08/01 09:26:42;;;;;;;11.20;6.78;;;;;;;;;;5136873;27;20027;-77
2021/08/01 09:29:08;;;;;;;14.05;8.88;;;;;;;;;;5136838;27;20019;-76
2021/08/01 09:31:34;;;;;;;17.05;7.55;;;;;;;;;;5137062;27;20366;-76
2021/08/01 09:34:00;;;;;;;9.55;6.68;;;;;;;;;;5136801;27;20031;-76
2021/08/01 09:36:27;;;;;;;13.73;7.97;;;;;;;;;;5136756;27;20119;-77
2021/08/01 09:38:57;;;;;;;14.55;7.53;;;;;;;;;;5136607;27;20027;-76
2021/08/01 09:41:23;;;;;;;8.43;6.90;;;;;;;;;;5136819;27;20496;-76
2021/08/01 09:43:54;;;;;;;9.70;6.72;;;;;;;;;;5136389;27;20023;-76
2021/08/01 09:46:20;;;;;;;10.23;6.15;;;;;;;;;;5136424;27;20039;-76
2021/08/01 09:48:47;;;;;;;9.10;7.30;;;;;;;;;;5136537;27;20059;-76
2021/08/01 09:51:13;;;;;;;9.98;7.20;;;;;;;;;;5135455;27;20034;-76
2021/08/01 09:53:39;;;;;;;10.85;7.97;;;;;;;;;;5135308;27;20489;-76
2021/08/01 09:56:13;;;;;;;11.82;6.80;;;;;;;;;;5115157;27;20382;-76
2021/08/01 09:58:39;;;;;;;;;;;;;;;;;;5129296;27;20058;-76
2021/08/01 10:01:05;;;;;;;15.60;7.20;;;;;;;;;;5134970;27;19946;-76
2021/08/01 10:03:38;;;;;;;10.13;6.65;;;;;;;;;;5115940;27;20053;-76
2021/08/01 10:06:04;;;;;;;;;;;;;;;;;;5130381;27;20023;-76
2021/08/01 10:08:44;;;;;;;11.02;7.18;;;;;;;;;;5135934;27;20049;-76
2021/08/01 10:11:21;;;;;;;12.13;6.00;;;;;;;;;;5135749;27;20023;-77
2021/08/01 10:13:49;;;;;;;13.63;7.50;;;;;;;;;;5135964;27;20051;-77
2021/08/01 10:16:16;;;;;;;11.88;6.63;;;;;;;;;;5135807;27;20046;-76
2021/08/01 10:18:43;;;;;;;11.77;6.72;;;;;;;;;;5117351;27;20027;-76
2021/08/01 10:21:10;;;;;;;10.68;7.03;;;;;;;;;;5135777;27;20501;-76
2021/08/01 10:23:54;;;;;;;10.90;7.70;;;;;;;;;;5135595;27;20057;-76
2021/08/01 10:26:22;;;;;;;10.20;8.05;;;;;;;;;;5135684;27;20031;-75
2021/08/01 10:28:52;;;;;;;12.00;7.03;;;;;;;;;;5100229;27;20023;-75
2021/08/01 10:31:20;;;;;;;10.20;6.88;;;;;;;;;;5135729;27;20023;-76
2021/08/01 10:33:53;;;;;;;12.88;7.70;;;;;;;;;;5135476;27;20023;-77
2021/08/01 10:36:24;;;;;;;16.73;7.90;;;;;;;;;;5135481;27;20102;-76
2021/08/01 10:38:52;;;;;;;14.82;6.88;;;;;;;;;;5135681;27;20023;-76
2021/08/01 10:41:20;;;;;;;12.90;7.28;;;;;;;;;;5135318;27;20371;-75
2021/08/01 10:43:48;;;;;;;11.32;7.07;;;;;;;;;;5135183;27;20031;-76
2021/08/01 10:46:17;;;;;;;9.75;7.10;;;;;;;;;;5135596;27;20501;-75
2021/08/01 10:48:43;;;;;;;10.95;7.10;;;;;;;;;;5135308;27;20477;-76
2021/08/01 10:51:10;;;;;;;11.75;7.40;;;;;;;;;;5135252;27;20075;-76
2021/08/01 10:53:36;;;;;;;8.60;6.05;;;;;;;;;;5135198;27;20114;-76
2021/08/01 10:56:08;;;;;;;11.52;7.90;;;;;;;;;;5135238;27;20038;-75
2021/08/01 10:58:38;;;;;;;8.70;6.47;;;;;;;;;;5135020;27;20023;-76
2021/08/01 11:01:05;;;;;;;10.30;7.05;;;;;;;;;;5134979;27;20423;-76
2021/08/01 11:03:35;;;;;;;9.43;7.03;;;;;;;;;;5134715;27;20119;-76
2021/08/01 11:06:01;;;;;;;9.20;6.00;;;;;;;;;;5134914;27;20053;-76
2021/08/01 11:08:28;;;;;;;11.05;5.72;;;;;;;;;;5134805;27;20027;-76
2021/08/01 11:11:16;;;;;;;11.52;6.75;;;;;;;;;;5135128;27;20055;-76
2021/08/01 11:13:43;;;;;;;9.70;6.30;;;;;;;;;;5134544;27;20025;-76
2021/08/01 11:16:10;;;;;;;10.77;6.32;;;;;;;;;;5134748;27;20026;-76
2021/08/01 11:18:40;;;;;;;8.85;6.20;;;;;;;;;;5134698;27;20080;-76
2021/08/01 11:21:09;;;;;;;14.73;6.20;;;;;;;;;;5134910;27;20410;-76
2021/08/01 11:24:01;;;;;;;9.00;6.25;;;;;;;;;;5134274;27;20139;-76
2021/08/01 11:26:28;;;;;;;11.35;6.25;;;;;;;;;;5095509;27;20049;-76
2021/08/01 11:29:11;;;;;;;8.52;5.70;;;;;;;;;;5134632;27;20027;-76
2021/08/01 11:31:39;;;;;;;8.30;6.68;;;;;;;;;;5134511;27;20027;-76
2021/08/01 11:34:23;;;;;;;10.52;5.95;;;;;;;;;;5134471;27;20051;-76
2021/08/01 11:37:09;;;;;;;8.10;6.10;;;;;;;;;;5134572;27;20390;-76
2021/08/01 11:39:54;;;;;;;13.10;7.05;;;;;;;;;;5134059;27;20046;-76
2021/08/01 11:42:21;;;;;;;10.55;6.07;;;;;;;;;;5134537;27;20023;-76
2021/08/01 11:45:01;;;;;;;10.98;6.40;;;;;;;;;;5134453;27;20031;-76
2021/08/01 11:47:28;;;;;;;10.35;6.00;;;;;;;;;;5134184;27;20030;-76
2021/08/01 11:49:54;;;;;;;11.05;5.75;;;;;;;;;;5134457;27;20051;-76
2021/08/01 11:52:22;;;;;;;8.63;5.60;;;;;;;;;;5134217;28;20500;-76
2021/08/01 11:54:53;;;;;;;6.47;4.88;;;;;;;;;;5134515;28;20546;-76
2021/08/01 11:57:20;;;;;;;9.27;5.60;;;;;;;;;;5134243;28;20072;-76
2021/08/01 11:59:53;;;;;;;8.43;5.10;;;;;;;;;;5134075;28;20031;-76
2021/08/01 12:02:19;;;;;;;9.15;5.30;;;;;;;;;;5134156;28;20060;-77
2021/08/01 12:04:58;;;;;;;9.50;5.22;;;;;;;;;;5134049;28;20045;-77
2021/08/01 12:07:44;;;;;;;10.27;5.55;;;;;;;;;;5134124;28;20100;-77
2021/08/01 12:10:20;;;;;;;7.13;5.25;;;;;;;;;;5134089;28;20031;-76
2021/08/01 12:12:46;;;;;;;11.00;6.25;;;;;;;;;;5134137;28;20019;-76
2021/08/01 12:15:13;;;;;;;8.73;5.68;;;;;;;;;;5136225;27;20109;-76
2021/08/01 12:17:39;;;;;;;8.48;5.63;;;;;;;;;;5138538;27;20030;-76
2021/08/01 12:20:05;;;;;;;7.05;5.95;;;;;;;;;;5138109;27;20047;-76
2021/08/01 12:22:32;;;;;;;8.65;5.63;;;;;;;;;;5137960;27;20062;-76
2021/08/01 12:25:00;;;;;;;12.52;5.53;;;;;;;;;;5138038;27;20408;-76
2021/08/01 12:27:45;;;;;;;11.07;6.25;;;;;;;;;;5138277;27;20445;-76
2021/08/01 12:30:17;;;;;;;9.10;5.55;;;;;;;;;;5138454;27;20446;-76
2021/08/01 12:32:47;;;;;;;8.85;5.05;;;;;;;;;;5138080;27;20029;-76
2021/08/01 12:35:26;;;;;;;8.98;5.40;;;;;;;;;;5137758;27;20388;-78
2021/08/01 12:38:00;;;;;;;8.45;5.07;;;;;;;;;;5102484;27;20031;-76
2021/08/01 12:40:32;;;;;;;7.63;5.18;;;;;;;;;;5137145;27;20019;-76
2021/08/01 12:43:00;;;;;;;7.87;4.83;;;;;;;;;;5136873;27;20019;-77
2021/08/01 12:45:30;;;;;;;7.82;4.65;;;;;;;;;;5137815;27;20057;-76
2021/08/01 12:47:56;;;;;;;7.93;5.03;;;;;;;;;;5137731;27;20027;-76
2021/08/01 12:50:22;;;;;;;11.73;5.20;;;;;;;;;;5137659;27;20474;-76
2021/08/01 12:52:50;;;;;;;12.45;5.15;;;;;;;;;;5119455;27;20038;-76
2021/08/01 12:55:17;;;;;;;8.65;4.63;;;;;;;;;;5137484;27;20019;-76
2021/08/01 12:58:01;;;;;;;8.90;5.38;;;;;;;;;;5137676;27;20027;-76
2021/08/01 13:00:31;;;;;;;10.02;4.78;;;;;;;;;;5137369;27;20047;-76
2021/08/01 13:02:58;;;;;;;8.32;5.05;;;;;;;;;;5137419;27;20034;-75
2021/08/01 13:05:25;;;;;;;7.07;5.10;;;;;;;;;;5137467;27;20035;-76
2021/08/01 13:07:51;;;;;;;7.20;5.40;;;;;;;;;;5137280;27;20102;-74
2021/08/01 13:10:18;;;;;;;9.43;5.55;;;;;;;;;;5137252;27;20525;-75
2021/08/01 13:13:03;;;;;;;8.88;4.75;;;;;;;;;;5137240;27;20030;-75
2021/08/01 13:15:32;;;;;;;8.85;5.75;;;;;;;;;;5137249;27;20023;-75
2021/08/01 13:17:58;;;;;;;9.20;4.85;;;;;;;;;;5136907;27;20027;-75
2021/08/01 13:20:35;;;;;;;9.82;5.18;;;;;;;;;;5137050;27;20034;-75
2021/08/01 13:23:02;;;;;;;8.63;5.70;;;;;;;;;;5136871;27;20054;-76
2021/08/01 13:25:36;;;;;;;9.05;5.25;;;;;;;;;;5136328;27;20038;-76
2021/08/01 13:28:03;;;;;;;7.30;4.65;;;;;;;;;;5136324;27;20103;-75
2021/08/01 13:30:29;;;;;;;13.77;4.72;;;;;;;;;;5136814;27;20037;-76
2021/08/01 13:32:55;;;;;;;10.13;5.40;;;;;;;;;;5136186;27;20027;-76
2021/08/01 13:35:23;;;;;;;9.40;5.53;;;;;;;;;;5136750;27;20043;-76
2021/08/01 13:38:03;;;;;;;8.30;5.28;;;;;;;;;;5136831;27;20034;-76
2021/08/01 13:40:31;;;;;;;11.77;5.80;;;;;;;;;;5136486;27;20067;-76
2021/08/01 13:42:58;;;;;;;8.77;5.43;;;;;;;;;;5136714;27;20023;-76
2021/08/01 13:45:27;;;;;;;7.68;4.90;;;;;;;;;;5136444;27;20049;-76
2021/08/01 13:47:54;;;;;;;10.27;5.40;;;;;;;;;;5136527;27;20083;-76
2021/08/01 13:50:21;;;;;;;8.13;4.90;;;;;;;;;;5136497;27;20023;-76
2021/08/01 13:52:50;;;;;;;8.85;4.95;;;;;;;;;;5136236;27;20107;-76
2021/08/01 13:55:17;;;;;;;7.10;4.93;;;;;;;;;;5136306;27;20056;-76
2021/08/01 13:57:43;;;;;;;6.68;4.90;;;;;;;;;;5136453;27;20080;-76
2021/08/01 14:00:10;;;;;;;6.93;5.00;;;;;;;;;;5136484;27;20024;-76
2021/08/01 14:02:36;;;;;;;9.20;5.80;;;;;;;;;;5136198;27;20080;-76
2021/08/01 14:05:03;;;;;;;12.18;5.80;;;;;;;;;;5135915;27;20038;-75
2021/08/01 14:07:29;;;;;;;9.05;4.80;;;;;;;;;;5136191;27;20023;-75
2021/08/01 14:09:55;;;;;;;14.07;5.07;;;;;;;;;;5136108;27;20478;-75
2021/08/01 14:12:23;;;;;;;7.78;4.53;;;;;;;;;;5135981;27;20090;-75
2021/08/01 14:14:49;;;;;;;8.25;5.30;;;;;;;;;;5135957;27;20031;-75
2021/08/01 14:17:16;;;;;;;8.50;4.80;;;;;;;;;;5135991;27;20530;-76
2021/08/01 14:19:42;;;;;;;12.13;5.28;;;;;;;;;;5135923;27;20051;-76
2021/08/01 14:22:08;;;;;;;16.52;4.75;;;;;;;;;;5135588;27;20493;-76
2021/08/01 14:24:35;;;;;;;9.32;5.00;;;;;;;;;;5135667;27;20085;-76
2021/08/01 14:27:01;;;;;;;10.18;5.35;;;;;;;;;;5135844;27;20465;-77
2021/08/01 14:29:32;;;;;;;9.82;5.75;;;;;;;;;;5135838;27;20019;-77
2021/08/01 14:32:01;;;;;;;9.40;5.28;;;;;;;;;;5135587;27;20023;-75
2021/08/01 14:34:27;;;;;;;7.75;5.15;;;;;;;;;;5135611;27;20100;-76
2021/08/01 14:36:59;;;;;;;9.00;5.07;;;;;;;;;;5134960;27;20473;-76
2021/08/01 14:39:25;;;;;;;9.52;5.53;;;;;;;;;;5135605;27;20184;-76
2021/08/01 14:41:52;;;;;;;9.52;4.85;;;;;;;;;;5135450;27;20031;-76
2021/08/01 14:44:19;;;;;;;10.13;5.30;;;;;;;;;;5135264;27;20031;-76